sensor_id;sensor_type;location;lat;lon;timestamp;P1;durP1;ratioP1;P2;durP2;ratioP2
75928;SDS011;64606;44.062;2.986;2023-07-29T00:01:53;5.00;;;2.33;;
75928;SDS011;64606;44.062;2.986;2023-07-29T00:04:20;4.13;;;2.40;;
75928;SDS011;64606;44.062;2.986;2023-07-29T00:06:46;4.10;;;2.63;;
75928;SDS011;64606;44.062;2.986;2023-07-29T00:09:12;3.25;;;2.42;;
75928;SDS011;64606;44.062;2.986;2023-07-29T00:11:38;5.15;;;2.30;;
75928;SDS011;64606;44.062;2.986;2023-07-29T00:14:04;3.45;;;2.38;;
75928;SDS011;64606;44.062;2.986;2023-07-29T00:16:30;6.47;;;2.67;;
75928;SDS011;64606;44.062;2.986;2023-07-29T00:18:56;4.68;;;2.53;;
75928;SDS011;64606;44.062;2.986;2023-07-29T00:21:22;3.70;;;2.58;;
75928;SDS011;64606;44.062;2.986;2023-07-29T00:23:49;3.85;;;2.53;;
75928;SDS011;64606;44.062;2.986;2023-07-29T00:26:15;5.35;;;2.47;;
75928;SDS011;64606;44.062;2.986;2023-07-29T00:28:41;2.47;;;2.15;;
75928;SDS011;64606;44.062;2.986;2023-07-29T00:31:07;4.15;;;2.60;;
75928;SDS011;64606;44.062;2.986;2023-07-29T00:33:33;3.90;;;2.42;;
75928;SDS011;64606;44.062;2.986;2023-07-29T00:35:59;4.70;;;2.55;;
75928;SDS011;64606;44.062;2.986;2023-07-29T00:38:27;5.68;;;2.45;;
75928;SDS011;64606;44.062;2.986;2023-07-29T00:40:53;4.53;;;2.63;;
75928;SDS011;64606;44.062;2.986;2023-07-29T00:43:19;2.50;;;2.15;;
75928;SDS011;64606;44.062;2.986;2023-07-29T00:45:45;2.67;;;2.20;;
75928;SDS011;64606;44.062;2.986;2023-07-29T00:48:12;2.97;;;2.38;;
75928;SDS011;64606;44.062;2.986;2023-07-29T00:50:38;5.63;;;2.70;;
75928;SDS011;64606;44.062;2.986;2023-07-29T00:53:04;3.40;;;2.35;;
75928;SDS011;64606;44.062;2.986;2023-07-29T00:55:31;6.05;;;2.50;;
75928;SDS011;64606;44.062;2.986;2023-07-29T00:57:57;3.15;;;2.50;;
75928;SDS011;64606;44.062;2.986;2023-07-29T01:00:23;3.33;;;2.30;;
75928;SDS011;64606;44.062;2.986;2023-07-29T01:02:49;3.28;;;2.45;;
75928;SDS011;64606;44.062;2.986;2023-07-29T01:05:17;3.72;;;2.20;;
75928;SDS011;64606;44.062;2.986;2023-07-29T01:08:46;4.10;;;2.40;;
75928;SDS011;64606;44.062;2.986;2023-07-29T01:11:29;5.45;;;2.40;;
75928;SDS011;64606;44.062;2.986;2023-07-29T01:13:31;3.58;;;2.33;;
75928;SDS011;64606;44.062;2.986;2023-07-29T01:16:03;3.42;;;2.70;;
75928;SDS011;64606;44.062;2.986;2023-07-29T01:18:32;3.22;;;2.50;;
75928;SDS011;64606;44.062;2.986;2023-07-29T01:20:59;5.00;;;2.70;;
75928;SDS011;64606;44.062;2.986;2023-07-29T01:23:26;3.85;;;2.70;;
75928;SDS011;64606;44.062;2.986;2023-07-29T01:25:54;7.72;;;2.42;;
75928;SDS011;64606;44.062;2.986;2023-07-29T01:28:20;4.20;;;2.67;;
75928;SDS011;64606;44.062;2.986;2023-07-29T01:30:47;5.55;;;2.33;;
75928;SDS011;64606;44.062;2.986;2023-07-29T01:33:18;3.55;;;2.40;;
75928;SDS011;64606;44.062;2.986;2023-07-29T01:35:50;4.80;;;2.30;;
75928;SDS011;64606;44.062;2.986;2023-07-29T01:38:21;3.90;;;2.55;;
75928;SDS011;64606;44.062;2.986;2023-07-29T01:40:49;3.58;;;2.40;;
75928;SDS011;64606;44.062;2.986;2023-07-29T01:43:16;4.82;;;2.88;;
75928;SDS011;64606;44.062;2.986;2023-07-29T01:45:44;4.38;;;2.30;;
75928;SDS011;64606;44.062;2.986;2023-07-29T01:48:10;4.68;;;2.60;;
75928;SDS011;64606;44.062;2.986;2023-07-29T01:50:36;3.78;;;2.30;;
75928;SDS011;64606;44.062;2.986;2023-07-29T01:53:02;4.72;;;2.60;;
75928;SDS011;64606;44.062;2.986;2023-07-29T01:55:28;3.83;;;2.60;;
75928;SDS011;64606;44.062;2.986;2023-07-29T01:57:55;3.70;;;2.60;;
75928;SDS011;64606;44.062;2.986;2023-07-29T02:00:21;4.80;;;2.28;;
75928;SDS011;64606;44.062;2.986;2023-07-29T02:02:47;3.95;;;2.55;;
75928;SDS011;64606;44.062;2.986;2023-07-29T02:05:13;4.07;;;2.63;;
75928;SDS011;64606;44.062;2.986;2023-07-29T02:07:39;3.25;;;2.60;;
75928;SDS011;64606;44.062;2.986;2023-07-29T02:10:06;3.55;;;2.45;;
75928;SDS011;64606;44.062;2.986;2023-07-29T02:12:32;5.47;;;2.70;;
75928;SDS011;64606;44.062;2.986;2023-07-29T02:14:59;6.63;;;2.55;;
75928;SDS011;64606;44.062;2.986;2023-07-29T02:17:25;4.63;;;2.63;;
75928;SDS011;64606;44.062;2.986;2023-07-29T02:19:51;4.55;;;2.83;;
75928;SDS011;64606;44.062;2.986;2023-07-29T02:22:17;3.60;;;2.47;;
75928;SDS011;64606;44.062;2.986;2023-07-29T02:24:44;3.78;;;2.60;;
75928;SDS011;64606;44.062;2.986;2023-07-29T02:27:11;3.95;;;2.53;;
75928;SDS011;64606;44.062;2.986;2023-07-29T02:29:37;5.93;;;2.60;;
75928;SDS011;64606;44.062;2.986;2023-07-29T02:32:03;6.07;;;3.08;;
75928;SDS011;64606;44.062;2.986;2023-07-29T02:34:29;3.03;;;2.53;;
75928;SDS011;64606;44.062;2.986;2023-07-29T02:36:56;3.58;;;2.55;;
75928;SDS011;64606;44.062;2.986;2023-07-29T02:39:22;3.40;;;2.70;;
75928;SDS011;64606;44.062;2.986;2023-07-29T02:41:48;3.40;;;2.53;;
75928;SDS011;64606;44.062;2.986;2023-07-29T02:44:15;4.43;;;2.53;;
75928;SDS011;64606;44.062;2.986;2023-07-29T02:46:41;5.93;;;2.88;;
75928;SDS011;64606;44.062;2.986;2023-07-29T02:49:07;4.25;;;2.67;;
75928;SDS011;64606;44.062;2.986;2023-07-29T02:51:33;4.43;;;2.70;;
75928;SDS011;64606;44.062;2.986;2023-07-29T02:53:59;6.13;;;2.88;;
75928;SDS011;64606;44.062;2.986;2023-07-29T02:56:26;3.28;;;2.50;;
75928;SDS011;64606;44.062;2.986;2023-07-29T02:58:52;4.00;;;2.80;;
75928;SDS011;64606;44.062;2.986;2023-07-29T03:01:18;3.30;;;2.50;;
75928;SDS011;64606;44.062;2.986;2023-07-29T03:03:44;5.65;;;2.80;;
75928;SDS011;64606;44.062;2.986;2023-07-29T03:06:11;7.47;;;2.70;;
75928;SDS011;64606;44.062;2.986;2023-07-29T03:08:37;5.80;;;3.00;;
75928;SDS011;64606;44.062;2.986;2023-07-29T03:11:09;3.92;;;2.80;;
75928;SDS011;64606;44.062;2.986;2023-07-29T03:13:36;3.75;;;2.47;;
75928;SDS011;64606;44.062;2.986;2023-07-29T03:16:06;5.00;;;2.90;;
75928;SDS011;64606;44.062;2.986;2023-07-29T03:18:32;4.90;;;2.65;;
75928;SDS011;64606;44.062;2.986;2023-07-29T03:20:58;4.65;;;2.80;;
75928;SDS011;64606;44.062;2.986;2023-07-29T03:23:25;5.38;;;2.90;;
75928;SDS011;64606;44.062;2.986;2023-07-29T03:25:51;6.03;;;2.83;;
75928;SDS011;64606;44.062;2.986;2023-07-29T03:28:21;5.15;;;2.90;;
75928;SDS011;64606;44.062;2.986;2023-07-29T03:30:47;2.75;;;2.38;;
75928;SDS011;64606;44.062;2.986;2023-07-29T03:33:13;4.05;;;2.58;;
75928;SDS011;64606;44.062;2.986;2023-07-29T03:35:39;5.72;;;2.47;;
75928;SDS011;64606;44.062;2.986;2023-07-29T03:38:09;6.65;;;2.70;;
75928;SDS011;64606;44.062;2.986;2023-07-29T03:40:36;4.07;;;3.03;;
75928;SDS011;64606;44.062;2.986;2023-07-29T03:43:02;6.32;;;3.40;;
75928;SDS011;64606;44.062;2.986;2023-07-29T03:45:28;3.60;;;2.65;;
75928;SDS011;64606;44.062;2.986;2023-07-29T03:47:54;5.18;;;2.72;;
75928;SDS011;64606;44.062;2.986;2023-07-29T03:50:20;5.30;;;2.50;;
75928;SDS011;64606;44.062;2.986;2023-07-29T03:52:46;4.57;;;2.60;;
75928;SDS011;64606;44.062;2.986;2023-07-29T03:55:13;3.30;;;2.55;;
75928;SDS011;64606;44.062;2.986;2023-07-29T03:57:39;4.90;;;2.35;;
75928;SDS011;64606;44.062;2.986;2023-07-29T04:00:05;4.75;;;2.75;;
75928;SDS011;64606;44.062;2.986;2023-07-29T04:02:31;12.18;;;3.28;;
75928;SDS011;64606;44.062;2.986;2023-07-29T04:04:57;8.20;;;3.20;;
75928;SDS011;64606;44.062;2.986;2023-07-29T04:07:23;7.93;;;3.33;;
75928;SDS011;64606;44.062;2.986;2023-07-29T04:09:49;6.75;;;3.25;;
75928;SDS011;64606;44.062;2.986;2023-07-29T04:12:16;5.13;;;2.72;;
75928;SDS011;64606;44.062;2.986;2023-07-29T04:14:42;5.82;;;2.88;;
75928;SDS011;64606;44.062;2.986;2023-07-29T04:17:08;3.85;;;2.60;;
75928;SDS011;64606;44.062;2.986;2023-07-29T04:19:34;5.85;;;2.88;;
75928;SDS011;64606;44.062;2.986;2023-07-29T04:22:00;7.20;;;2.80;;
75928;SDS011;64606;44.062;2.986;2023-07-29T04:24:26;6.40;;;3.15;;
75928;SDS011;64606;44.062;2.986;2023-07-29T04:26:52;6.82;;;2.80;;
75928;SDS011;64606;44.062;2.986;2023-07-29T04:29:18;3.92;;;2.58;;
75928;SDS011;64606;44.062;2.986;2023-07-29T04:31:45;4.10;;;2.70;;
75928;SDS011;64606;44.062;2.986;2023-07-29T04:34:11;4.22;;;2.70;;
75928;SDS011;64606;44.062;2.986;2023-07-29T04:36:37;4.63;;;3.10;;
75928;SDS011;64606;44.062;2.986;2023-07-29T04:39:03;5.68;;;3.30;;
75928;SDS011;64606;44.062;2.986;2023-07-29T04:41:30;5.90;;;2.45;;
75928;SDS011;64606;44.062;2.986;2023-07-29T04:43:56;3.70;;;2.53;;
75928;SDS011;64606;44.062;2.986;2023-07-29T04:46:22;4.30;;;2.50;;
75928;SDS011;64606;44.062;2.986;2023-07-29T04:48:48;4.95;;;2.55;;
75928;SDS011;64606;44.062;2.986;2023-07-29T04:51:14;4.05;;;2.28;;
75928;SDS011;64606;44.062;2.986;2023-07-29T04:53:40;4.25;;;2.65;;
75928;SDS011;64606;44.062;2.986;2023-07-29T04:56:06;5.38;;;2.90;;
75928;SDS011;64606;44.062;2.986;2023-07-29T04:58:33;4.72;;;2.78;;
75928;SDS011;64606;44.062;2.986;2023-07-29T05:01:01;6.35;;;3.10;;
75928;SDS011;64606;44.062;2.986;2023-07-29T05:03:27;5.55;;;2.85;;
75928;SDS011;64606;44.062;2.986;2023-07-29T05:05:53;5.50;;;2.90;;
75928;SDS011;64606;44.062;2.986;2023-07-29T05:08:21;7.15;;;3.20;;
75928;SDS011;64606;44.062;2.986;2023-07-29T05:10:50;7.63;;;3.47;;
75928;SDS011;64606;44.062;2.986;2023-07-29T05:13:17;4.90;;;2.90;;
75928;SDS011;64606;44.062;2.986;2023-07-29T05:15:43;4.93;;;2.75;;
75928;SDS011;64606;44.062;2.986;2023-07-29T05:18:09;4.78;;;2.63;;
75928;SDS011;64606;44.062;2.986;2023-07-29T05:20:35;3.70;;;2.63;;
75928;SDS011;64606;44.062;2.986;2023-07-29T05:23:01;4.47;;;2.83;;
75928;SDS011;64606;44.062;2.986;2023-07-29T05:25:28;5.95;;;2.50;;
75928;SDS011;64606;44.062;2.986;2023-07-29T05:27:54;3.28;;;2.70;;
75928;SDS011;64606;44.062;2.986;2023-07-29T05:30:20;5.93;;;3.22;;
75928;SDS011;64606;44.062;2.986;2023-07-29T05:32:46;3.42;;;2.50;;
75928;SDS011;64606;44.062;2.986;2023-07-29T05:35:13;4.00;;;2.70;;
75928;SDS011;64606;44.062;2.986;2023-07-29T05:37:39;4.07;;;2.70;;
75928;SDS011;64606;44.062;2.986;2023-07-29T05:40:06;4.65;;;2.90;;
75928;SDS011;64606;44.062;2.986;2023-07-29T05:42:33;6.30;;;2.70;;
75928;SDS011;64606;44.062;2.986;2023-07-29T05:45:00;3.95;;;2.65;;
75928;SDS011;64606;44.062;2.986;2023-07-29T05:47:26;4.85;;;2.85;;
75928;SDS011;64606;44.062;2.986;2023-07-29T05:49:52;5.63;;;2.75;;
75928;SDS011;64606;44.062;2.986;2023-07-29T05:52:18;4.40;;;2.70;;
75928;SDS011;64606;44.062;2.986;2023-07-29T05:54:44;4.68;;;2.78;;
75928;SDS011;64606;44.062;2.986;2023-07-29T05:57:11;4.43;;;2.45;;
75928;SDS011;64606;44.062;2.986;2023-07-29T05:59:37;5.15;;;3.10;;
75928;SDS011;64606;44.062;2.986;2023-07-29T06:02:03;7.35;;;3.65;;
75928;SDS011;64606;44.062;2.986;2023-07-29T06:04:30;6.53;;;3.65;;
75928;SDS011;64606;44.062;2.986;2023-07-29T06:06:56;8.48;;;3.72;;
75928;SDS011;64606;44.062;2.986;2023-07-29T06:09:22;4.60;;;2.83;;
75928;SDS011;64606;44.062;2.986;2023-07-29T06:11:50;8.98;;;3.13;;
75928;SDS011;64606;44.062;2.986;2023-07-29T06:14:16;7.18;;;3.17;;
75928;SDS011;64606;44.062;2.986;2023-07-29T06:16:42;4.45;;;2.88;;
75928;SDS011;64606;44.062;2.986;2023-07-29T06:19:08;6.88;;;2.92;;
75928;SDS011;64606;44.062;2.986;2023-07-29T06:21:35;5.60;;;3.20;;
75928;SDS011;64606;44.062;2.986;2023-07-29T06:24:01;6.20;;;3.30;;
75928;SDS011;64606;44.062;2.986;2023-07-29T06:26:28;6.03;;;3.40;;
75928;SDS011;64606;44.062;2.986;2023-07-29T06:28:54;6.72;;;3.58;;
75928;SDS011;64606;44.062;2.986;2023-07-29T06:31:20;6.40;;;3.60;;
75928;SDS011;64606;44.062;2.986;2023-07-29T06:33:46;6.75;;;3.40;;
75928;SDS011;64606;44.062;2.986;2023-07-29T06:36:12;4.80;;;3.30;;
75928;SDS011;64606;44.062;2.986;2023-07-29T06:38:38;6.45;;;3.45;;
75928;SDS011;64606;44.062;2.986;2023-07-29T06:41:06;5.40;;;3.40;;
75928;SDS011;64606;44.062;2.986;2023-07-29T06:43:32;4.68;;;3.40;;
75928;SDS011;64606;44.062;2.986;2023-07-29T06:45:58;5.95;;;3.40;;
75928;SDS011;64606;44.062;2.986;2023-07-29T06:48:24;7.47;;;3.58;;
75928;SDS011;64606;44.062;2.986;2023-07-29T06:50:50;4.78;;;3.78;;
75928;SDS011;64606;44.062;2.986;2023-07-29T06:53:17;7.90;;;3.45;;
75928;SDS011;64606;44.062;2.986;2023-07-29T06:55:43;4.30;;;3.25;;
75928;SDS011;64606;44.062;2.986;2023-07-29T06:58:10;5.53;;;3.47;;
75928;SDS011;64606;44.062;2.986;2023-07-29T07:00:36;5.82;;;3.85;;
75928;SDS011;64606;44.062;2.986;2023-07-29T07:03:02;6.30;;;3.58;;
75928;SDS011;64606;44.062;2.986;2023-07-29T07:05:28;7.20;;;3.47;;
75928;SDS011;64606;44.062;2.986;2023-07-29T07:07:54;5.65;;;3.35;;
75928;SDS011;64606;44.062;2.986;2023-07-29T07:10:20;8.80;;;3.47;;
75928;SDS011;64606;44.062;2.986;2023-07-29T07:12:46;4.75;;;3.40;;
75928;SDS011;64606;44.062;2.986;2023-07-29T07:15:13;6.32;;;3.42;;
75928;SDS011;64606;44.062;2.986;2023-07-29T07:17:39;6.90;;;2.90;;
75928;SDS011;64606;44.062;2.986;2023-07-29T07:20:05;5.78;;;3.30;;
75928;SDS011;64606;44.062;2.986;2023-07-29T07:22:32;4.97;;;3.40;;
75928;SDS011;64606;44.062;2.986;2023-07-29T07:24:58;15.68;;;5.57;;
75928;SDS011;64606;44.062;2.986;2023-07-29T07:27:24;12.20;;;4.63;;
75928;SDS011;64606;44.062;2.986;2023-07-29T07:29:50;7.22;;;3.47;;
75928;SDS011;64606;44.062;2.986;2023-07-29T07:32:16;6.43;;;2.95;;
75928;SDS011;64606;44.062;2.986;2023-07-29T07:34:42;7.18;;;3.53;;
75928;SDS011;64606;44.062;2.986;2023-07-29T07:37:08;6.68;;;3.20;;
75928;SDS011;64606;44.062;2.986;2023-07-29T07:39:34;4.75;;;3.28;;
75928;SDS011;64606;44.062;2.986;2023-07-29T07:42:00;5.40;;;3.53;;
75928;SDS011;64606;44.062;2.986;2023-07-29T07:44:27;6.00;;;3.55;;
75928;SDS011;64606;44.062;2.986;2023-07-29T07:46:53;7.10;;;3.60;;
75928;SDS011;64606;44.062;2.986;2023-07-29T07:49:19;7.85;;;3.28;;
75928;SDS011;64606;44.062;2.986;2023-07-29T07:51:45;4.57;;;2.92;;
75928;SDS011;64606;44.062;2.986;2023-07-29T07:54:11;4.38;;;3.00;;
75928;SDS011;64606;44.062;2.986;2023-07-29T07:56:37;7.35;;;3.58;;
75928;SDS011;64606;44.062;2.986;2023-07-29T07:59:03;4.78;;;3.00;;
75928;SDS011;64606;44.062;2.986;2023-07-29T08:01:36;4.18;;;2.90;;
75928;SDS011;64606;44.062;2.986;2023-07-29T08:04:02;4.50;;;3.17;;
75928;SDS011;64606;44.062;2.986;2023-07-29T08:06:28;7.88;;;3.55;;
75928;SDS011;64606;44.062;2.986;2023-07-29T08:08:55;7.95;;;3.72;;
75928;SDS011;64606;44.062;2.986;2023-07-29T08:11:22;8.07;;;3.75;;
75928;SDS011;64606;44.062;2.986;2023-07-29T08:13:48;4.55;;;3.13;;
75928;SDS011;64606;44.062;2.986;2023-07-29T08:16:15;4.65;;;3.00;;
75928;SDS011;64606;44.062;2.986;2023-07-29T08:18:41;5.65;;;3.22;;
75928;SDS011;64606;44.062;2.986;2023-07-29T08:21:07;5.68;;;3.13;;
75928;SDS011;64606;44.062;2.986;2023-07-29T08:23:33;5.65;;;3.05;;
75928;SDS011;64606;44.062;2.986;2023-07-29T08:26:01;6.40;;;2.67;;
75928;SDS011;64606;44.062;2.986;2023-07-29T08:28:28;7.30;;;2.83;;
75928;SDS011;64606;44.062;2.986;2023-07-29T08:30:54;6.22;;;3.20;;
75928;SDS011;64606;44.062;2.986;2023-07-29T08:33:21;4.60;;;3.05;;
75928;SDS011;64606;44.062;2.986;2023-07-29T08:35:47;6.22;;;3.33;;
75928;SDS011;64606;44.062;2.986;2023-07-29T08:38:13;6.57;;;2.88;;
75928;SDS011;64606;44.062;2.986;2023-07-29T08:40:42;5.95;;;2.85;;
75928;SDS011;64606;44.062;2.986;2023-07-29T08:43:08;5.57;;;3.25;;
75928;SDS011;64606;44.062;2.986;2023-07-29T08:45:35;9.68;;;4.40;;
75928;SDS011;64606;44.062;2.986;2023-07-29T08:48:02;5.50;;;2.85;;
75928;SDS011;64606;44.062;2.986;2023-07-29T08:50:31;4.15;;;3.10;;
75928;SDS011;64606;44.062;2.986;2023-07-29T08:52:58;6.18;;;3.35;;
75928;SDS011;64606;44.062;2.986;2023-07-29T08:55:25;6.95;;;3.10;;
75928;SDS011;64606;44.062;2.986;2023-07-29T08:57:51;5.82;;;3.13;;
75928;SDS011;64606;44.062;2.986;2023-07-29T09:00:17;6.22;;;2.97;;
75928;SDS011;64606;44.062;2.986;2023-07-29T09:02:43;3.30;;;2.47;;
75928;SDS011;64606;44.062;2.986;2023-07-29T09:05:09;6.15;;;3.25;;
75928;SDS011;64606;44.062;2.986;2023-07-29T09:07:35;4.10;;;3.03;;
75928;SDS011;64606;44.062;2.986;2023-07-29T09:10:03;6.30;;;2.65;;
75928;SDS011;64606;44.062;2.986;2023-07-29T09:12:29;3.33;;;2.70;;
75928;SDS011;64606;44.062;2.986;2023-07-29T09:14:55;5.72;;;3.22;;
75928;SDS011;64606;44.062;2.986;2023-07-29T09:17:21;5.40;;;2.92;;
75928;SDS011;64606;44.062;2.986;2023-07-29T09:19:50;6.03;;;3.50;;
75928;SDS011;64606;44.062;2.986;2023-07-29T09:22:18;4.47;;;2.85;;
75928;SDS011;64606;44.062;2.986;2023-07-29T09:24:45;4.72;;;2.92;;
75928;SDS011;64606;44.062;2.986;2023-07-29T09:27:23;2.95;;;2.47;;
75928;SDS011;64606;44.062;2.986;2023-07-29T09:29:49;4.90;;;2.80;;
75928;SDS011;64606;44.062;2.986;2023-07-29T09:32:22;3.70;;;2.63;;
75928;SDS011;64606;44.062;2.986;2023-07-29T09:34:48;3.90;;;2.80;;
75928;SDS011;64606;44.062;2.986;2023-07-29T09:37:18;3.20;;;2.58;;
75928;SDS011;64606;44.062;2.986;2023-07-29T09:39:46;6.70;;;2.45;;
75928;SDS011;64606;44.062;2.986;2023-07-29T09:42:19;9.60;;;2.67;;
75928;SDS011;64606;44.062;2.986;2023-07-29T09:44:45;5.25;;;2.72;;
75928;SDS011;64606;44.062;2.986;2023-07-29T09:47:30;5.47;;;2.65;;
75928;SDS011;64606;44.062;2.986;2023-07-29T09:49:56;5.40;;;2.22;;
75928;SDS011;64606;44.062;2.986;2023-07-29T09:52:22;7.90;;;2.75;;
75928;SDS011;64606;44.062;2.986;2023-07-29T09:54:49;6.22;;;2.92;;
75928;SDS011;64606;44.062;2.986;2023-07-29T09:57:16;4.60;;;2.67;;
75928;SDS011;64606;44.062;2.986;2023-07-29T09:59:53;5.82;;;2.47;;
75928;SDS011;64606;44.062;2.986;2023-07-29T10:02:20;5.30;;;2.60;;
75928;SDS011;64606;44.062;2.986;2023-07-29T10:04:46;3.88;;;2.55;;
75928;SDS011;64606;44.062;2.986;2023-07-29T10:07:12;7.00;;;2.60;;
75928;SDS011;64606;44.062;2.986;2023-07-29T10:09:39;4.57;;;2.15;;
75928;SDS011;64606;44.062;2.986;2023-07-29T10:12:05;3.55;;;2.20;;
75928;SDS011;64606;44.062;2.986;2023-07-29T10:14:32;4.40;;;2.65;;
75928;SDS011;64606;44.062;2.986;2023-07-29T10:16:58;8.57;;;2.58;;
75928;SDS011;64606;44.062;2.986;2023-07-29T10:19:25;6.32;;;2.55;;
75928;SDS011;64606;44.062;2.986;2023-07-29T10:21:52;4.78;;;2.35;;
75928;SDS011;64606;44.062;2.986;2023-07-29T10:24:19;9.57;;;2.67;;
75928;SDS011;64606;44.062;2.986;2023-07-29T10:26:53;4.80;;;2.95;;
75928;SDS011;64606;44.062;2.986;2023-07-29T10:29:20;7.15;;;2.60;;
75928;SDS011;64606;44.062;2.986;2023-07-29T10:31:46;4.30;;;2.80;;
75928;SDS011;64606;44.062;2.986;2023-07-29T10:34:13;3.78;;;2.80;;
75928;SDS011;64606;44.062;2.986;2023-07-29T10:36:40;3.72;;;2.60;;
75928;SDS011;64606;44.062;2.986;2023-07-29T10:39:06;3.65;;;2.67;;
75928;SDS011;64606;44.062;2.986;2023-07-29T10:46:46;4.78;;;2.47;;
75928;SDS011;64606;44.062;2.986;2023-07-29T10:49:12;6.35;;;3.00;;
75928;SDS011;64606;44.062;2.986;2023-07-29T10:51:38;6.60;;;2.80;;
75928;SDS011;64606;44.062;2.986;2023-07-29T10:54:11;7.28;;;2.80;;
75928;SDS011;64606;44.062;2.986;2023-07-29T10:56:41;4.22;;;2.90;;
75928;SDS011;64606;44.062;2.986;2023-07-29T11:01:50;4.68;;;2.95;;
75928;SDS011;64606;44.062;2.986;2023-07-29T11:09:39;5.85;;;2.95;;
75928;SDS011;64606;44.062;2.986;2023-07-29T11:12:32;4.32;;;2.75;;
75928;SDS011;64606;44.062;2.986;2023-07-29T11:14:52;5.32;;;2.80;;
75928;SDS011;64606;44.062;2.986;2023-07-29T11:17:18;3.22;;;2.75;;
75928;SDS011;64606;44.062;2.986;2023-07-29T11:19:44;4.43;;;2.80;;
75928;SDS011;64606;44.062;2.986;2023-07-29T11:22:11;5.22;;;3.15;;
75928;SDS011;64606;44.062;2.986;2023-07-29T11:24:38;3.70;;;2.83;;
75928;SDS011;64606;44.062;2.986;2023-07-29T11:27:11;5.75;;;2.75;;
75928;SDS011;64606;44.062;2.986;2023-07-29T11:29:37;6.63;;;2.90;;
75928;SDS011;64606;44.062;2.986;2023-07-29T11:32:03;4.13;;;2.90;;
75928;SDS011;64606;44.062;2.986;2023-07-29T11:34:32;7.35;;;3.22;;
75928;SDS011;64606;44.062;2.986;2023-07-29T11:36:58;6.13;;;2.92;;
75928;SDS011;64606;44.062;2.986;2023-07-29T11:39:24;4.35;;;2.63;;
75928;SDS011;64606;44.062;2.986;2023-07-29T11:41:51;5.25;;;2.90;;
75928;SDS011;64606;44.062;2.986;2023-07-29T11:44:17;4.35;;;2.67;;
75928;SDS011;64606;44.062;2.986;2023-07-29T11:46:43;5.15;;;2.75;;
75928;SDS011;64606;44.062;2.986;2023-07-29T11:49:10;5.32;;;2.78;;
75928;SDS011;64606;44.062;2.986;2023-07-29T11:51:36;5.57;;;3.00;;
75928;SDS011;64606;44.062;2.986;2023-07-29T11:54:02;4.47;;;2.83;;
75928;SDS011;64606;44.062;2.986;2023-07-29T11:56:29;5.90;;;3.00;;
75928;SDS011;64606;44.062;2.986;2023-07-29T11:58:58;6.28;;;2.97;;
75928;SDS011;64606;44.062;2.986;2023-07-29T12:01:24;11.85;;;3.10;;
75928;SDS011;64606;44.062;2.986;2023-07-29T12:03:50;5.97;;;2.75;;
75928;SDS011;64606;44.062;2.986;2023-07-29T12:06:16;7.15;;;2.90;;
75928;SDS011;64606;44.062;2.986;2023-07-29T12:08:42;3.72;;;2.65;;
75928;SDS011;64606;44.062;2.986;2023-07-29T12:11:09;5.60;;;2.90;;
75928;SDS011;64606;44.062;2.986;2023-07-29T12:13:38;6.75;;;3.20;;
75928;SDS011;64606;44.062;2.986;2023-07-29T12:16:04;5.00;;;3.00;;
75928;SDS011;64606;44.062;2.986;2023-07-29T12:18:34;4.32;;;2.80;;
75928;SDS011;64606;44.062;2.986;2023-07-29T12:21:00;4.07;;;2.70;;
75928;SDS011;64606;44.062;2.986;2023-07-29T12:23:26;3.95;;;2.90;;
75928;SDS011;64606;44.062;2.986;2023-07-29T12:25:56;5.15;;;2.55;;
75928;SDS011;64606;44.062;2.986;2023-07-29T12:28:23;5.40;;;2.80;;
75928;SDS011;64606;44.062;2.986;2023-07-29T12:30:56;6.15;;;2.85;;
75928;SDS011;64606;44.062;2.986;2023-07-29T12:35:57;4.10;;;2.92;;
75928;SDS011;64606;44.062;2.986;2023-07-29T12:38:25;6.25;;;3.10;;
75928;SDS011;64606;44.062;2.986;2023-07-29T12:40:51;6.28;;;2.90;;
75928;SDS011;64606;44.062;2.986;2023-07-29T12:43:18;6.63;;;2.88;;
75928;SDS011;64606;44.062;2.986;2023-07-29T12:45:44;6.47;;;2.78;;
75928;SDS011;64606;44.062;2.986;2023-07-29T12:48:11;15.02;;;3.35;;
75928;SDS011;64606;44.062;2.986;2023-07-29T12:50:38;7.45;;;3.17;;
75928;SDS011;64606;44.062;2.986;2023-07-29T12:53:04;3.25;;;2.78;;
75928;SDS011;64606;44.062;2.986;2023-07-29T12:55:30;5.53;;;2.90;;
75928;SDS011;64606;44.062;2.986;2023-07-29T12:57:57;4.85;;;2.90;;
75928;SDS011;64606;44.062;2.986;2023-07-29T13:00:24;5.45;;;2.90;;
75928;SDS011;64606;44.062;2.986;2023-07-29T13:02:50;4.40;;;2.78;;
75928;SDS011;64606;44.062;2.986;2023-07-29T13:05:16;5.45;;;3.25;;
75928;SDS011;64606;44.062;2.986;2023-07-29T13:07:43;6.25;;;2.85;;
75928;SDS011;64606;44.062;2.986;2023-07-29T13:10:09;3.95;;;2.58;;
75928;SDS011;64606;44.062;2.986;2023-07-29T13:12:36;8.40;;;3.03;;
75928;SDS011;64606;44.062;2.986;2023-07-29T13:15:02;4.03;;;2.97;;
75928;SDS011;64606;44.062;2.986;2023-07-29T13:17:28;7.35;;;3.00;;
75928;SDS011;64606;44.062;2.986;2023-07-29T13:19:54;5.30;;;3.03;;
75928;SDS011;64606;44.062;2.986;2023-07-29T13:22:20;4.68;;;3.55;;
75928;SDS011;64606;44.062;2.986;2023-07-29T13:24:46;5.65;;;3.10;;
75928;SDS011;64606;44.062;2.986;2023-07-29T13:27:13;5.18;;;3.25;;
75928;SDS011;64606;44.062;2.986;2023-07-29T13:29:39;4.65;;;2.83;;
75928;SDS011;64606;44.062;2.986;2023-07-29T13:32:06;4.43;;;3.25;;
75928;SDS011;64606;44.062;2.986;2023-07-29T13:34:33;11.07;;;3.05;;
75928;SDS011;64606;44.062;2.986;2023-07-29T13:36:59;4.80;;;3.00;;
75928;SDS011;64606;44.062;2.986;2023-07-29T13:39:25;9.30;;;3.38;;
75928;SDS011;64606;44.062;2.986;2023-07-29T13:41:52;4.97;;;3.25;;
75928;SDS011;64606;44.062;2.986;2023-07-29T13:44:18;7.38;;;3.00;;
75928;SDS011;64606;44.062;2.986;2023-07-29T13:46:44;9.20;;;2.85;;
75928;SDS011;64606;44.062;2.986;2023-07-29T13:49:11;4.18;;;2.80;;
75928;SDS011;64606;44.062;2.986;2023-07-29T13:51:37;5.90;;;3.00;;
75928;SDS011;64606;44.062;2.986;2023-07-29T13:54:03;7.47;;;2.92;;
75928;SDS011;64606;44.062;2.986;2023-07-29T13:56:29;6.53;;;2.72;;
75928;SDS011;64606;44.062;2.986;2023-07-29T13:58:55;6.43;;;2.65;;
75928;SDS011;64606;44.062;2.986;2023-07-29T14:01:21;5.85;;;3.05;;
75928;SDS011;64606;44.062;2.986;2023-07-29T14:03:48;3.33;;;2.60;;
75928;SDS011;64606;44.062;2.986;2023-07-29T14:06:14;4.28;;;2.60;;
75928;SDS011;64606;44.062;2.986;2023-07-29T14:08:41;5.40;;;2.80;;
75928;SDS011;64606;44.062;2.986;2023-07-29T14:11:07;8.07;;;2.85;;
75928;SDS011;64606;44.062;2.986;2023-07-29T14:13:33;6.05;;;2.90;;
75928;SDS011;64606;44.062;2.986;2023-07-29T14:16:03;4.10;;;2.67;;
75928;SDS011;64606;44.062;2.986;2023-07-29T14:18:30;6.80;;;2.78;;
75928;SDS011;64606;44.062;2.986;2023-07-29T14:20:56;4.68;;;2.70;;
75928;SDS011;64606;44.062;2.986;2023-07-29T14:23:22;3.67;;;2.67;;
75928;SDS011;64606;44.062;2.986;2023-07-29T14:25:48;4.10;;;2.70;;
75928;SDS011;64606;44.062;2.986;2023-07-29T14:28:14;3.90;;;2.67;;
75928;SDS011;64606;44.062;2.986;2023-07-29T14:30:41;4.75;;;2.53;;
75928;SDS011;64606;44.062;2.986;2023-07-29T14:33:07;3.90;;;2.50;;
75928;SDS011;64606;44.062;2.986;2023-07-29T14:35:33;5.65;;;2.65;;
75928;SDS011;64606;44.062;2.986;2023-07-29T14:37:59;4.82;;;2.60;;
75928;SDS011;64606;44.062;2.986;2023-07-29T14:40:25;6.45;;;2.65;;
75928;SDS011;64606;44.062;2.986;2023-07-29T14:42:52;4.78;;;2.30;;
75928;SDS011;64606;44.062;2.986;2023-07-29T14:45:18;3.78;;;2.60;;
75928;SDS011;64606;44.062;2.986;2023-07-29T14:47:44;4.03;;;2.30;;
75928;SDS011;64606;44.062;2.986;2023-07-29T14:50:10;6.07;;;2.45;;
75928;SDS011;64606;44.062;2.986;2023-07-29T14:52:37;3.50;;;2.40;;
75928;SDS011;64606;44.062;2.986;2023-07-29T14:55:03;3.70;;;2.78;;
75928;SDS011;64606;44.062;2.986;2023-07-29T14:57:29;5.53;;;2.55;;
75928;SDS011;64606;44.062;2.986;2023-07-29T14:59:55;4.70;;;2.78;;
75928;SDS011;64606;44.062;2.986;2023-07-29T15:02:21;4.57;;;2.67;;